createdAt,value
2018-11-04T00:00:55.414Z,2.33
2018-11-04T00:01:58.795Z,2.37
2018-11-04T00:03:02.196Z,2.40
2018-11-04T00:04:05.848Z,2.40
2018-11-04T00:05:09.259Z,2.40
2018-11-04T00:06:12.674Z,2.20
2018-11-04T00:07:16.112Z,2.20
2018-11-04T00:08:19.565Z,2.53
2018-11-04T00:09:23.019Z,2.43
2018-11-04T00:10:26.422Z,2.40
2018-11-04T00:11:29.863Z,2.10
2018-11-04T00:12:33.384Z,2.33
2018-11-04T00:13:36.889Z,2.47
2018-11-04T00:14:40.293Z,2.40
2018-11-04T00:15:43.715Z,2.40
2018-11-04T00:16:47.118Z,2.20
2018-11-04T00:17:50.519Z,2.23
2018-11-04T00:18:53.907Z,2.30
2018-11-04T00:19:57.314Z,2.80
2018-11-04T00:21:00.694Z,2.50
2018-11-04T00:22:04.179Z,2.70
2018-11-04T00:23:07.630Z,2.10
2018-11-04T00:24:11.061Z,2.10
2018-11-04T00:25:15.084Z,2.20
2018-11-04T00:26:18.473Z,2.20
2018-11-04T00:27:21.964Z,2.20
2018-11-04T00:28:26.872Z,2.30
2018-11-04T00:29:30.324Z,2.20
2018-11-04T00:30:33.780Z,2.47
2018-11-04T00:31:37.189Z,2.60
2018-11-04T00:32:41.049Z,2.20
2018-11-04T00:33:44.459Z,2.20
2018-11-04T00:34:47.896Z,2.30
2018-11-04T00:35:51.387Z,2.10
2018-11-04T00:36:54.817Z,1.97
2018-11-04T00:37:58.203Z,2.07
2018-11-04T00:39:01.688Z,1.90
2018-11-04T00:40:05.578Z,2.20
2018-11-04T00:41:08.996Z,2.23
2018-11-04T00:42:12.450Z,2.20
2018-11-04T00:43:15.882Z,2.17
2018-11-04T00:44:19.312Z,2.17
2018-11-04T00:45:22.801Z,2.00
2018-11-04T00:46:26.166Z,2.20
2018-11-04T00:47:29.691Z,2.30
2018-11-04T00:48:33.149Z,2.27
2018-11-04T00:49:36.530Z,2.30
2018-11-04T00:50:39.912Z,2.20
2018-11-04T00:51:43.302Z,2.40
2018-11-04T00:52:46.677Z,1.93
2018-11-04T00:53:50.079Z,2.40
2018-11-04T00:54:53.494Z,1.70
2018-11-04T00:55:56.861Z,2.20
2018-11-04T00:57:00.315Z,2.10
2018-11-04T00:58:03.729Z,2.40
2018-11-04T00:59:07.227Z,1.80
2018-11-04T01:00:15.739Z,2.13
2018-11-04T01:01:19.187Z,2.43
2018-11-04T01:02:22.631Z,2.10
2018-11-04T01:03:26.052Z,1.93
2018-11-04T01:04:29.470Z,2.13
2018-11-04T01:05:32.925Z,2.10
2018-11-04T01:06:36.350Z,1.73
2018-11-04T01:07:40.324Z,1.60
2018-11-04T01:08:43.733Z,2.30
2018-11-04T01:09:47.156Z,2.30
2018-11-04T01:10:50.565Z,1.87
2018-11-04T01:11:53.997Z,2.20
2018-11-04T01:12:57.500Z,1.73
2018-11-04T01:14:00.906Z,2.10
2018-11-04T01:15:04.591Z,2.13
2018-11-04T01:16:08.094Z,1.90
2018-11-04T01:17:11.583Z,2.13
2018-11-04T01:18:15.056Z,2.10
2018-11-04T01:19:18.429Z,1.73
2018-11-04T01:20:22.125Z,2.20
2018-11-04T01:21:25.514Z,1.93
2018-11-04T01:22:29.117Z,2.13
2018-11-04T01:23:32.501Z,1.77
2018-11-04T01:24:35.940Z,1.70
2018-11-04T01:25:39.362Z,1.70
2018-11-04T01:26:42.939Z,1.47
2018-11-04T01:27:46.371Z,1.93
2018-11-04T01:28:49.761Z,1.70
2018-11-04T01:29:53.186Z,1.73
2018-11-04T01:30:56.570Z,2.07
2018-11-04T01:32:00.238Z,2.20
2018-11-04T01:33:03.690Z,1.77
2018-11-04T01:34:07.422Z,1.83
2018-11-04T01:35:10.824Z,1.83
2018-11-04T01:36:14.236Z,2.00
2018-11-04T01:37:17.647Z,1.90
2018-11-04T01:38:21.040Z,1.67
2018-11-04T01:39:24.460Z,1.73
2018-11-04T01:40:27.871Z,1.70
2018-11-04T01:41:31.281Z,1.87
2018-11-04T01:42:34.786Z,1.60
2018-11-04T01:43:38.229Z,1.70
2018-11-04T01:44:41.625Z,1.87
2018-11-04T01:45:45.056Z,1.73
2018-11-04T01:46:48.442Z,1.80
2018-11-04T01:47:51.829Z,1.70
2018-11-04T01:48:55.287Z,1.50
2018-11-04T01:49:58.677Z,1.80
2018-11-04T01:51:02.137Z,1.83
2018-11-04T01:52:06.083Z,1.80
2018-11-04T01:53:09.603Z,1.70
2018-11-04T01:54:13.272Z,1.43
2018-11-04T01:55:16.669Z,1.70
2018-11-04T01:56:20.094Z,1.97
2018-11-04T01:57:23.555Z,1.83
2018-11-04T01:58:26.995Z,1.50
2018-11-04T01:59:30.423Z,1.53
2018-11-04T02:00:33.883Z,1.60
2018-11-04T02:01:37.292Z,2.10
2018-11-04T02:02:41.034Z,1.87
2018-11-04T02:03:44.510Z,1.90
2018-11-04T02:04:47.935Z,1.60
2018-11-04T02:05:51.335Z,1.83
2018-11-04T02:06:54.710Z,1.60
2018-11-04T02:07:58.137Z,1.60
2018-11-04T02:09:01.520Z,1.83
2018-11-04T02:10:05.481Z,1.53
2018-11-04T02:11:08.888Z,1.77
2018-11-04T02:12:12.328Z,1.30
2018-11-04T02:13:15.724Z,1.87
2018-11-04T02:14:19.137Z,1.63
2018-11-04T02:15:22.569Z,1.30
2018-11-04T02:16:25.978Z,1.80
2018-11-04T02:17:29.392Z,1.83
2018-11-04T02:18:32.856Z,1.93
2018-11-04T02:19:36.733Z,1.70
2018-11-04T02:20:40.246Z,1.43
2018-11-04T02:21:43.641Z,1.80
2018-11-04T02:22:47.010Z,1.57
2018-11-04T02:23:50.523Z,1.70
2018-11-04T02:24:53.960Z,1.90
2018-11-04T02:25:57.402Z,1.40
2018-11-04T02:27:00.843Z,1.53
2018-11-04T02:28:04.351Z,1.70
2018-11-04T02:29:07.943Z,1.77
2018-11-04T02:30:12.968Z,1.97
2018-11-04T02:31:16.401Z,1.40
2018-11-04T02:32:20.131Z,1.67
2018-11-04T02:33:23.570Z,1.70
2018-11-04T02:34:27.026Z,1.73
2018-11-04T02:35:30.429Z,1.43
2018-11-04T02:36:34.456Z,1.70
2018-11-04T02:37:37.963Z,1.60
2018-11-04T02:38:41.391Z,1.70
2018-11-04T02:39:44.861Z,1.60
2018-11-04T02:40:48.241Z,1.43
2018-11-04T02:41:51.652Z,1.40
2018-11-04T02:42:55.074Z,1.50
2018-11-04T02:43:58.455Z,1.37
2018-11-04T02:45:01.840Z,1.27
2018-11-04T02:46:06.350Z,1.70
2018-11-04T02:47:09.937Z,1.43
2018-11-04T02:48:13.262Z,1.40
2018-11-04T02:49:16.692Z,1.57
2018-11-04T02:50:20.119Z,1.40
2018-11-04T02:51:23.551Z,1.30
2018-11-04T02:52:26.958Z,1.67
2018-11-04T02:53:30.401Z,1.63
2018-11-04T02:54:33.835Z,1.50
2018-11-04T02:55:37.260Z,1.70
2018-11-04T02:56:40.688Z,1.60
2018-11-04T02:57:44.086Z,1.50
2018-11-04T02:58:47.450Z,1.27
2018-11-04T02:59:50.890Z,1.50
2018-11-04T03:00:54.315Z,1.70
2018-11-04T03:01:57.764Z,1.37
2018-11-04T03:03:01.162Z,1.30
2018-11-04T03:04:04.969Z,1.30
2018-11-04T03:05:09.599Z,1.40
2018-11-04T03:06:13.036Z,1.40
2018-11-04T03:07:16.473Z,1.27
2018-11-04T03:08:19.929Z,1.20
2018-11-04T03:09:23.345Z,1.70
2018-11-04T03:10:26.721Z,1.53
2018-11-04T03:11:30.164Z,1.40
2018-11-04T03:12:33.845Z,1.43
2018-11-04T03:13:37.321Z,1.43
2018-11-04T03:14:40.731Z,1.60
2018-11-04T03:15:44.219Z,1.53
2018-11-04T03:16:47.703Z,1.30
2018-11-04T03:17:51.081Z,1.47
2018-11-04T03:18:54.430Z,1.30
2018-11-04T03:19:57.912Z,1.27
2018-11-04T03:21:01.412Z,1.30
2018-11-04T03:22:05.380Z,1.30
2018-11-04T03:23:08.992Z,1.40
2018-11-04T03:24:12.589Z,1.20
2018-11-04T03:25:15.989Z,1.60
2018-11-04T03:26:19.386Z,1.37
2018-11-04T03:27:22.811Z,1.10
2018-11-04T03:28:26.245Z,1.43
2018-11-04T03:29:29.645Z,1.30
2018-11-04T03:30:33.224Z,1.23
2018-11-04T03:31:36.735Z,1.43
2018-11-04T03:32:40.204Z,1.30
2018-11-04T03:33:43.795Z,1.43
2018-11-04T03:34:47.201Z,1.40
2018-11-04T03:35:50.621Z,1.50
2018-11-04T03:36:54.120Z,1.10
2018-11-04T03:37:57.586Z,1.33
2018-11-04T03:39:01.026Z,1.50
2018-11-04T03:40:04.858Z,1.23
2018-11-04T03:41:08.270Z,1.33
2018-11-04T03:42:11.665Z,1.20
2018-11-04T03:43:15.059Z,1.43
2018-11-04T03:44:18.471Z,1.60
2018-11-04T03:45:21.898Z,1.17
2018-11-04T03:46:25.296Z,1.30
2018-11-04T03:47:28.695Z,1.40
2018-11-04T03:48:32.168Z,1.60
2018-11-04T03:49:35.640Z,1.03
2018-11-04T03:50:39.068Z,1.30
2018-11-04T03:51:42.465Z,1.40
2018-11-04T03:52:45.887Z,1.57
2018-11-04T03:53:49.267Z,1.50
2018-11-04T03:54:52.653Z,1.20
2018-11-04T03:55:56.089Z,1.60
2018-11-04T03:56:59.486Z,1.57
2018-11-04T03:58:03.336Z,1.50
2018-11-04T03:59:06.926Z,1.30
2018-11-04T04:00:12.077Z,1.53
2018-11-04T04:01:15.495Z,1.57
2018-11-04T04:02:18.906Z,1.17
2018-11-04T04:03:22.416Z,1.80
2018-11-04T04:04:25.838Z,1.70
2018-11-04T04:05:29.373Z,1.50
2018-11-04T04:06:32.776Z,1.23
2018-11-04T04:07:36.234Z,0.97
2018-11-04T04:08:39.690Z,1.30
2018-11-04T04:09:43.084Z,1.40
2018-11-04T04:10:46.537Z,1.17
2018-11-04T04:11:49.929Z,1.57
2018-11-04T04:12:53.336Z,1.20
2018-11-04T04:13:56.729Z,1.50
2018-11-04T04:15:00.088Z,0.97
2018-11-04T04:16:03.536Z,1.30
2018-11-04T04:17:07.041Z,1.33
2018-11-04T04:18:10.788Z,1.13
2018-11-04T04:19:14.156Z,1.10
2018-11-04T04:20:17.554Z,1.07
2018-11-04T04:21:20.960Z,1.30
2018-11-04T04:22:24.365Z,1.60
2018-11-04T04:23:27.921Z,1.07
2018-11-04T04:24:31.331Z,1.23
2018-11-04T04:25:35.342Z,1.30
2018-11-04T04:26:39.097Z,1.00
2018-11-04T04:27:42.484Z,1.20
2018-11-04T04:28:45.889Z,1.23
2018-11-04T04:29:49.271Z,1.10
2018-11-04T04:30:52.670Z,1.37
2018-11-04T04:31:56.091Z,1.20
2018-11-04T04:32:59.478Z,1.20
2018-11-04T04:34:02.887Z,1.20
2018-11-04T04:35:07.501Z,1.27
2018-11-04T04:36:10.874Z,1.83
2018-11-04T04:37:14.318Z,1.50
2018-11-04T04:38:17.733Z,1.57
2018-11-04T04:39:21.106Z,1.27
2018-11-04T04:40:24.528Z,1.20
2018-11-04T04:41:27.906Z,1.57
2018-11-04T04:42:31.312Z,1.20
2018-11-04T04:43:34.740Z,1.27
2018-11-04T04:44:38.155Z,1.20
2018-11-04T04:45:41.641Z,1.20
2018-11-04T04:46:45.021Z,1.40
2018-11-04T04:47:48.458Z,1.00
2018-11-04T04:48:51.977Z,1.10
2018-11-04T04:49:55.461Z,1.27
2018-11-04T04:50:58.891Z,1.03
2018-11-04T04:52:02.255Z,1.53
2018-11-04T04:53:06.028Z,1.30
2018-11-04T04:54:09.427Z,1.40
2018-11-04T04:55:12.811Z,1.40
2018-11-04T04:56:16.215Z,1.30
2018-11-04T04:57:19.611Z,1.03
2018-11-04T04:58:23.370Z,1.13
2018-11-04T04:59:26.741Z,1.50
2018-11-04T05:00:30.152Z,1.17
2018-11-04T05:01:33.583Z,1.00
2018-11-04T05:02:37.006Z,1.30
2018-11-04T05:03:40.436Z,1.23
2018-11-04T05:04:43.858Z,1.27
2018-11-04T05:05:47.291Z,1.23
2018-11-04T05:06:50.672Z,1.30
2018-11-04T05:07:54.116Z,1.23
2018-11-04T05:08:57.630Z,1.37
2018-11-04T05:10:01.046Z,1.10
2018-11-04T05:11:04.527Z,1.30
2018-11-04T05:12:07.966Z,1.70
2018-11-04T05:13:11.388Z,1.60
2018-11-04T05:14:14.812Z,1.07
2018-11-04T05:15:18.277Z,1.13
2018-11-04T05:16:21.831Z,1.10
2018-11-04T05:17:25.276Z,1.00
2018-11-04T05:18:28.686Z,1.10
2018-11-04T05:19:32.075Z,1.30
2018-11-04T05:20:35.476Z,1.27
2018-11-04T05:21:38.848Z,1.23
2018-11-04T05:22:42.485Z,0.90
2018-11-04T05:23:45.888Z,1.20
2018-11-04T05:24:49.288Z,1.20
2018-11-04T05:25:52.744Z,1.40
2018-11-04T05:26:56.122Z,1.00
2018-11-04T05:27:59.546Z,1.30
2018-11-04T05:29:03.028Z,1.20
2018-11-04T05:30:08.701Z,0.90
2018-11-04T05:31:12.114Z,0.90
2018-11-04T05:32:15.505Z,1.10
2018-11-04T05:33:18.940Z,1.20
2018-11-04T05:34:22.455Z,1.10
2018-11-04T05:35:25.942Z,1.27
2018-11-04T05:36:29.362Z,1.00
2018-11-04T05:37:32.766Z,1.20
2018-11-04T05:38:36.178Z,1.20
2018-11-04T05:39:39.671Z,1.10
2018-11-04T05:40:43.116Z,1.20
2018-11-04T05:41:46.559Z,1.40
2018-11-04T05:42:50.058Z,1.10
2018-11-04T05:43:53.556Z,1.27
2018-11-04T05:44:57.038Z,0.97
2018-11-04T05:46:00.420Z,1.10
2018-11-04T05:47:03.839Z,1.30
2018-11-04T05:48:07.239Z,1.20
2018-11-04T05:49:10.649Z,1.10
2018-11-04T05:50:14.033Z,1.10
2018-11-04T05:51:17.457Z,1.10
2018-11-04T05:52:21.362Z,0.80
2018-11-04T05:53:24.784Z,1.17
2018-11-04T05:54:28.171Z,1.07
2018-11-04T05:55:31.615Z,1.30
2018-11-04T05:56:35.292Z,1.20
2018-11-04T05:57:38.839Z,0.90
2018-11-04T05:58:42.395Z,0.97
2018-11-04T05:59:45.915Z,1.17
2018-11-04T06:00:49.373Z,1.00
2018-11-04T06:01:52.819Z,1.23
2018-11-04T06:02:56.192Z,1.07
2018-11-04T06:03:59.707Z,1.30
2018-11-04T06:05:03.169Z,0.90
2018-11-04T06:06:06.649Z,1.20
2018-11-04T06:07:10.558Z,1.20
2018-11-04T06:08:13.921Z,1.10
2018-11-04T06:09:17.360Z,1.07
2018-11-04T06:10:20.771Z,1.40
2018-11-04T06:11:24.243Z,1.10
2018-11-04T06:12:27.648Z,1.20
2018-11-04T06:13:31.040Z,1.20
2018-11-04T06:14:34.418Z,1.17
2018-11-04T06:15:38.040Z,1.17
2018-11-04T06:16:41.441Z,1.10
2018-11-04T06:17:44.940Z,1.27
2018-11-04T06:18:48.340Z,0.93
2018-11-04T06:19:51.755Z,1.30
2018-11-04T06:20:55.136Z,1.40
2018-11-04T06:21:58.700Z,1.10
2018-11-04T06:23:02.095Z,1.43
2018-11-04T06:24:05.791Z,1.30
2018-11-04T06:25:09.385Z,1.53
2018-11-04T06:26:12.836Z,1.30
2018-11-04T06:27:16.198Z,1.20
2018-11-04T06:28:19.700Z,1.30
2018-11-04T06:29:23.139Z,1.27
2018-11-04T06:30:26.692Z,1.37
2018-11-04T06:31:30.079Z,1.00
2018-11-04T06:32:33.461Z,1.10
2018-11-04T06:33:36.951Z,0.93
2018-11-04T06:34:40.367Z,1.20
2018-11-04T06:35:43.778Z,1.10
2018-11-04T06:36:47.204Z,1.10
2018-11-04T06:37:50.632Z,1.10
2018-11-04T06:38:54.040Z,1.30
2018-11-04T06:39:57.680Z,1.03
2018-11-04T06:41:01.119Z,1.27
2018-11-04T06:42:04.637Z,1.10
2018-11-04T06:43:08.071Z,1.10
2018-11-04T06:44:11.457Z,1.07
2018-11-04T06:45:14.884Z,1.13
2018-11-04T06:46:18.282Z,1.10
2018-11-04T06:47:21.733Z,1.20
2018-11-04T06:48:25.160Z,1.40
2018-11-04T06:49:28.611Z,1.00
2018-11-04T06:50:32.068Z,1.60
2018-11-04T06:51:35.633Z,1.10
2018-11-04T06:52:39.112Z,1.20
2018-11-04T06:53:42.506Z,1.10
2018-11-04T06:54:45.939Z,1.07
2018-11-04T06:55:49.379Z,1.10
2018-11-04T06:56:52.805Z,1.30
2018-11-04T06:57:56.226Z,1.03
2018-11-04T06:58:59.643Z,1.17
2018-11-04T07:00:03.181Z,1.10
2018-11-04T07:01:06.522Z,0.93
2018-11-04T07:02:09.954Z,1.10
2018-11-04T07:03:13.361Z,1.00
2018-11-04T07:04:25.528Z,1.20
2018-11-04T07:05:28.934Z,1.00
2018-11-04T07:06:32.344Z,1.03
2018-11-04T07:07:36.011Z,1.17
2018-11-04T07:08:39.417Z,1.07
2018-11-04T07:09:42.850Z,0.83
2018-11-04T07:10:46.264Z,1.23
2018-11-04T07:11:50.234Z,1.10
2018-11-04T07:12:53.620Z,1.03
2018-11-04T07:13:57.065Z,0.90
2018-11-04T07:15:00.480Z,1.07
2018-11-04T07:16:03.872Z,1.70
2018-11-04T07:17:07.267Z,0.90
2018-11-04T07:18:10.764Z,1.20
2018-11-04T07:19:14.827Z,1.10
2018-11-04T07:20:18.233Z,0.90
2018-11-04T07:21:21.633Z,0.93
2018-11-04T07:22:25.023Z,1.07
2018-11-04T07:23:28.412Z,0.97
2018-11-04T07:24:31.840Z,1.00
2018-11-04T07:25:35.291Z,1.00
2018-11-04T07:26:38.738Z,1.00
2018-11-04T07:27:42.118Z,0.90
2018-11-04T07:28:45.489Z,1.03
2018-11-04T07:29:48.883Z,1.00
2018-11-04T07:30:52.277Z,1.33
2018-11-04T07:31:55.690Z,1.10
2018-11-04T07:32:59.103Z,1.13
2018-11-04T07:34:02.515Z,1.00
2018-11-04T07:35:06.698Z,0.97
2018-11-04T07:36:10.104Z,1.53
2018-11-04T07:37:13.537Z,1.10
2018-11-04T07:38:16.901Z,1.03
2018-11-04T07:39:20.334Z,1.23
2018-11-04T07:40:23.793Z,1.30
2018-11-04T07:41:27.224Z,1.90
2018-11-04T07:42:30.758Z,1.20
2018-11-04T07:43:34.187Z,1.40
2018-11-04T07:44:37.811Z,1.80
2018-11-04T07:45:41.207Z,3.17
2018-11-04T07:46:44.590Z,4.10
2018-11-04T07:47:48.001Z,4.57
2018-11-04T07:48:51.446Z,5.80
2018-11-04T07:49:54.830Z,5.90
2018-11-04T07:50:58.247Z,7.10
2018-11-04T07:52:01.650Z,7.93
2018-11-04T07:53:05.501Z,7.47
2018-11-04T07:54:08.910Z,6.70
2018-11-04T07:55:12.311Z,7.17
2018-11-04T07:56:16.226Z,6.93
2018-11-04T07:57:19.893Z,7.57
2018-11-04T07:58:23.355Z,8.70
2018-11-04T07:59:26.745Z,9.00
2018-11-04T08:00:30.144Z,8.23
2018-11-04T08:01:33.711Z,8.83
2018-11-04T08:02:37.332Z,9.70
2018-11-04T08:03:40.768Z,9.60
2018-11-04T08:04:44.183Z,8.60
2018-11-04T08:05:47.628Z,9.33
2018-11-04T08:06:51.027Z,9.70
2018-11-04T08:07:54.446Z,9.90
2018-11-04T08:08:57.990Z,10.07
2018-11-04T08:10:01.429Z,10.93
2018-11-04T08:11:05.216Z,9.60
2018-11-04T08:12:08.931Z,11.00
2018-11-04T08:13:12.294Z,10.87
2018-11-04T08:14:15.684Z,9.27
2018-11-04T08:15:19.079Z,10.47
2018-11-04T08:16:22.489Z,9.33
2018-11-04T08:17:26.285Z,10.67
2018-11-04T08:18:29.680Z,10.60
2018-11-04T08:19:33.282Z,11.03
2018-11-04T08:20:36.900Z,10.60
2018-11-04T08:21:40.342Z,11.97
2018-11-04T08:22:43.757Z,14.90
2018-11-04T08:23:47.159Z,12.17
2018-11-04T08:24:51.376Z,14.53
2018-11-04T08:25:54.766Z,13.97
2018-11-04T08:26:58.227Z,14.63
2018-11-04T08:28:01.703Z,14.00
2018-11-04T08:29:05.207Z,13.80
2018-11-04T08:30:09.302Z,12.83
2018-11-04T08:31:12.707Z,12.37
2018-11-04T08:32:16.275Z,12.23
2018-11-04T08:33:20.015Z,11.10
2018-11-04T08:34:23.486Z,11.23
2018-11-04T08:35:26.920Z,10.90
2018-11-04T08:36:30.359Z,10.30
2018-11-04T08:37:33.989Z,10.20
2018-11-04T08:38:37.427Z,21.30
2018-11-04T08:39:41.082Z,17.70
2018-11-04T08:40:44.454Z,20.80
2018-11-04T08:41:47.893Z,19.73
2018-11-04T08:42:51.318Z,13.53
2018-11-04T08:43:54.693Z,14.00
2018-11-04T08:44:58.108Z,13.20
2018-11-04T08:46:01.654Z,12.83
2018-11-04T08:47:05.686Z,13.70
2018-11-04T08:48:09.503Z,12.63
2018-11-04T08:49:12.915Z,12.07
2018-11-04T08:50:16.325Z,13.23
2018-11-04T08:51:19.747Z,12.97
2018-11-04T08:52:23.165Z,12.43
2018-11-04T08:53:26.767Z,12.30
2018-11-04T08:54:30.156Z,12.67
2018-11-04T08:55:33.638Z,11.90
2018-11-04T08:56:37.063Z,12.90
2018-11-04T08:57:40.641Z,12.40
2018-11-04T08:58:44.067Z,12.77
2018-11-04T08:59:47.486Z,12.30
2018-11-04T09:00:50.941Z,12.90
2018-11-04T09:01:54.344Z,12.27
2018-11-04T09:02:57.939Z,11.83
2018-11-04T09:04:01.363Z,12.50
2018-11-04T09:05:05.215Z,12.00
2018-11-04T09:06:08.648Z,11.23
2018-11-04T09:07:12.063Z,12.37
2018-11-04T09:08:15.540Z,11.83
2018-11-04T09:09:18.955Z,13.83
2018-11-04T09:10:22.366Z,12.90
2018-11-04T09:11:25.775Z,13.30
2018-11-04T09:12:29.201Z,12.30
2018-11-04T09:13:32.676Z,12.43
2018-11-04T09:14:36.779Z,12.40
2018-11-04T09:15:40.211Z,13.10
2018-11-04T09:16:43.626Z,12.80
2018-11-04T09:17:47.019Z,12.80
2018-11-04T09:18:50.505Z,12.07
2018-11-04T09:19:53.892Z,11.73
2018-11-04T09:20:57.288Z,13.60
2018-11-04T09:22:00.949Z,11.97
2018-11-04T09:23:04.359Z,11.27
2018-11-04T09:24:07.933Z,10.50
2018-11-04T09:25:12.166Z,11.37
2018-11-04T09:26:15.617Z,10.97
2018-11-04T09:27:19.065Z,10.00
2018-11-04T09:28:22.571Z,11.03
2018-11-04T09:29:26.019Z,9.63
2018-11-04T09:30:29.425Z,10.50
2018-11-04T09:31:32.861Z,10.30
2018-11-04T09:32:36.474Z,10.37
2018-11-04T09:33:39.892Z,10.67
2018-11-04T09:34:43.477Z,9.57
2018-11-04T09:35:47.049Z,10.40
2018-11-04T09:36:50.368Z,10.77
2018-11-04T09:37:53.816Z,10.00
2018-11-04T09:38:57.284Z,9.37
2018-11-04T09:40:00.727Z,9.73
2018-11-04T09:41:04.201Z,10.57
2018-11-04T09:42:07.704Z,9.50
2018-11-04T09:43:11.269Z,9.30
2018-11-04T09:44:14.718Z,9.70
2018-11-04T09:45:18.133Z,8.83
2018-11-04T09:46:21.566Z,10.07
2018-11-04T09:47:25.044Z,8.80
2018-11-04T09:48:28.437Z,10.20
2018-11-04T09:49:31.999Z,9.20
2018-11-04T09:50:35.768Z,9.60
2018-11-04T09:51:43.068Z,8.83
2018-11-04T09:52:46.526Z,8.33
2018-11-04T09:53:50.480Z,9.50
2018-11-04T09:54:53.910Z,8.63
2018-11-04T09:55:57.357Z,8.73
2018-11-04T09:57:00.898Z,8.63
2018-11-04T09:58:04.339Z,9.10
2018-11-04T09:59:07.804Z,9.00
2018-11-04T10:00:12.405Z,8.67
2018-11-04T10:01:15.872Z,8.03
2018-11-04T10:02:19.680Z,9.30
2018-11-04T10:03:23.124Z,8.87
2018-11-04T10:04:26.569Z,8.70
2018-11-04T10:05:30.037Z,7.93
2018-11-04T10:06:33.473Z,8.67
2018-11-04T10:07:37.252Z,7.23
2018-11-04T10:08:40.671Z,7.87
2018-11-04T10:09:44.164Z,8.57
2018-11-04T10:10:47.571Z,8.00
2018-11-04T10:11:51.136Z,8.13
2018-11-04T10:12:54.535Z,8.17
2018-11-04T10:13:58.110Z,7.67
2018-11-04T10:15:01.552Z,7.60
2018-11-04T10:16:05.286Z,7.77
2018-11-04T10:17:08.691Z,7.70
2018-11-04T10:18:12.105Z,7.10
2018-11-04T10:19:15.758Z,7.57
2018-11-04T10:20:19.417Z,8.83
2018-11-04T10:21:22.584Z,7.50
2018-11-04T10:22:25.992Z,7.37
2018-11-04T10:23:29.478Z,8.30
2018-11-04T10:24:33.051Z,7.27
2018-11-04T10:25:36.471Z,7.03
2018-11-04T10:26:40.085Z,6.87
2018-11-04T10:27:43.622Z,7.33
2018-11-04T10:28:47.059Z,7.00
2018-11-04T10:29:50.453Z,7.30
2018-11-04T10:30:53.941Z,7.90
2018-11-04T10:31:57.383Z,7.03
2018-11-04T10:33:00.881Z,7.80
2018-11-04T10:34:05.040Z,7.70
2018-11-04T10:35:09.323Z,7.13
2018-11-04T10:36:12.808Z,6.90
2018-11-04T10:37:16.292Z,6.33
2018-11-04T10:38:19.751Z,6.23
2018-11-04T10:39:23.204Z,7.50
2018-11-04T10:40:26.625Z,6.67
2018-11-04T10:41:30.061Z,6.70
2018-11-04T10:42:33.555Z,7.00
2018-11-04T10:43:37.277Z,6.70
2018-11-04T10:44:40.960Z,6.43
2018-11-04T10:45:44.374Z,6.93
2018-11-04T10:46:47.875Z,6.27
2018-11-04T10:47:52.915Z,6.60
2018-11-04T10:48:56.348Z,6.53
2018-11-04T10:49:59.736Z,7.10
2018-11-04T10:51:03.218Z,6.60
2018-11-04T10:52:06.950Z,6.00
2018-11-04T10:53:10.386Z,6.50
2018-11-04T10:54:13.819Z,6.20
2018-11-04T10:55:17.280Z,6.70
2018-11-04T10:56:20.822Z,5.97
2018-11-04T10:57:24.409Z,6.60
2018-11-04T10:58:27.918Z,6.47
2018-11-04T10:59:31.482Z,5.80
2018-11-04T11:01:09.348Z,6.50
2018-11-04T11:02:12.829Z,6.30
2018-11-04T11:03:16.253Z,6.20
2018-11-04T11:04:19.756Z,6.63
2018-11-04T11:05:23.245Z,5.73
2018-11-04T11:06:26.865Z,5.63
2018-11-04T11:07:30.333Z,5.43
2018-11-04T11:08:34.388Z,6.03
2018-11-04T11:09:38.152Z,5.47
2018-11-04T11:10:41.794Z,6.03
2018-11-04T11:11:45.305Z,5.90
2018-11-04T11:12:49.129Z,5.60
2018-11-04T11:13:52.579Z,5.50
2018-11-04T11:14:56.040Z,5.10
2018-11-04T11:15:59.771Z,5.40
2018-11-04T11:17:03.206Z,5.70
2018-11-04T11:18:06.658Z,5.53
2018-11-04T11:19:10.120Z,5.50
2018-11-04T11:20:13.683Z,5.40
2018-11-04T11:21:17.281Z,5.80
2018-11-04T11:22:20.776Z,5.50
2018-11-04T11:23:24.387Z,5.33
2018-11-04T11:24:27.901Z,5.70
2018-11-04T11:25:31.305Z,5.50
2018-11-04T11:26:34.709Z,5.83
2018-11-04T11:27:38.233Z,5.50
2018-11-04T11:28:41.656Z,5.60
2018-11-04T11:29:45.165Z,5.77
2018-11-04T11:30:48.640Z,5.67
2018-11-04T11:31:52.010Z,5.80
2018-11-04T11:32:55.486Z,5.50
2018-11-04T11:33:58.904Z,5.17
2018-11-04T11:35:02.361Z,5.30
2018-11-04T11:36:06.288Z,5.23
2018-11-04T11:37:09.730Z,5.50
2018-11-04T11:38:13.120Z,5.40
2018-11-04T11:39:16.474Z,5.50
2018-11-04T11:40:20.176Z,5.20
2018-11-04T11:41:23.604Z,4.93
2018-11-04T11:42:27.090Z,5.30
2018-11-04T11:43:30.474Z,4.90
2018-11-04T11:44:34.418Z,5.33
2018-11-04T11:45:37.923Z,4.90
2018-11-04T11:46:41.525Z,6.27
2018-11-04T11:47:44.997Z,6.47
2018-11-04T11:48:48.474Z,7.70
2018-11-04T11:49:51.879Z,7.93
2018-11-04T11:50:55.368Z,8.10
2018-11-04T11:51:59.082Z,8.30
2018-11-04T11:53:02.513Z,8.50
2018-11-04T11:54:06.598Z,8.13
2018-11-04T11:55:10.023Z,8.93
2018-11-04T11:56:13.469Z,8.07
2018-11-04T11:57:16.983Z,8.27
2018-11-04T11:58:20.396Z,7.83
2018-11-04T11:59:23.914Z,7.17
2018-11-04T12:00:27.394Z,7.80
2018-11-04T12:01:30.857Z,7.60
2018-11-04T12:02:34.627Z,7.07
2018-11-04T12:03:38.082Z,8.10
2018-11-04T12:04:42.027Z,8.57
2018-11-04T12:05:46.771Z,8.07
2018-11-04T12:06:51.378Z,9.13
2018-11-04T12:07:56.153Z,8.47
2018-11-04T12:09:00.635Z,9.07
2018-11-04T12:10:04.797Z,8.73
2018-11-04T12:11:08.762Z,8.13
2018-11-04T12:12:13.440Z,7.93
2018-11-04T12:13:17.521Z,8.37
2018-11-04T12:14:21.027Z,7.97
2018-11-04T12:15:26.486Z,8.10
2018-11-04T12:16:30.156Z,8.20
2018-11-04T12:17:34.352Z,8.70
2018-11-04T12:18:38.668Z,7.43
2018-11-04T12:19:43.095Z,8.33
2018-11-04T12:20:47.297Z,8.80
2018-11-04T12:21:50.703Z,8.47
2018-11-04T12:22:54.380Z,8.13
2018-11-04T12:23:57.885Z,8.10
2018-11-04T12:25:01.548Z,9.00
2018-11-04T12:26:06.903Z,8.13
2018-11-04T12:27:10.332Z,8.70
2018-11-04T12:28:13.797Z,7.43
2018-11-04T12:29:17.360Z,8.53
2018-11-04T12:30:21.144Z,8.30
2018-11-04T12:31:24.537Z,8.37
2018-11-04T12:32:28.009Z,7.70
2018-11-04T12:33:31.559Z,7.80
2018-11-04T12:34:35.068Z,7.57
2018-11-04T12:35:38.623Z,7.93
2018-11-04T12:36:42.046Z,7.60
2018-11-04T12:37:45.720Z,8.50
2018-11-04T12:38:49.146Z,8.07
2018-11-04T12:39:52.560Z,8.20
2018-11-04T12:40:55.957Z,7.90
2018-11-04T12:41:59.356Z,8.20
2018-11-04T12:43:02.745Z,8.70
2018-11-04T12:44:06.744Z,7.83
2018-11-04T12:45:11.656Z,7.93
2018-11-04T12:46:15.144Z,7.80
2018-11-04T12:47:18.545Z,8.60
2018-11-04T12:48:21.967Z,8.57
2018-11-04T12:49:25.387Z,7.67
2018-11-04T12:50:28.795Z,7.50
2018-11-04T12:51:32.226Z,8.27
2018-11-04T12:52:35.659Z,8.27
2018-11-04T12:53:39.099Z,8.47
2018-11-04T12:54:42.583Z,8.50
2018-11-04T12:55:46.011Z,8.97
2018-11-04T12:56:49.504Z,8.37
2018-11-04T12:57:52.908Z,8.40
2018-11-04T12:58:56.346Z,9.00
2018-11-04T12:59:59.804Z,8.47
2018-11-04T13:01:03.297Z,8.90
2018-11-04T13:02:06.927Z,8.43
2018-11-04T13:03:10.299Z,7.23
2018-11-04T13:04:13.678Z,8.37
2018-11-04T13:05:17.273Z,8.70
2018-11-04T13:06:20.924Z,8.43
2018-11-04T13:07:24.307Z,7.73
2018-11-04T13:08:27.697Z,7.33
2018-11-04T13:09:31.130Z,8.40
2018-11-04T13:10:37.113Z,8.27
2018-11-04T13:11:42.702Z,7.93
2018-11-04T13:12:46.143Z,8.20
2018-11-04T13:13:49.602Z,8.33
2018-11-04T13:14:53.083Z,8.77
2018-11-04T13:15:56.513Z,9.27
2018-11-04T13:17:00.059Z,8.20
2018-11-04T13:18:03.458Z,7.97
2018-11-04T13:19:06.901Z,8.40
2018-11-04T13:20:10.344Z,7.37
2018-11-04T13:21:13.846Z,8.53
2018-11-04T13:22:17.312Z,8.40
2018-11-04T13:23:20.708Z,8.43
2018-11-04T13:24:24.248Z,8.93
2018-11-04T13:25:27.687Z,9.57
2018-11-04T13:26:31.163Z,9.77
2018-11-04T13:27:34.662Z,11.60
2018-11-04T13:28:38.155Z,14.47
2018-11-04T13:29:41.536Z,13.83
2018-11-04T13:30:44.977Z,13.00
2018-11-04T13:31:48.432Z,13.80
2018-11-04T13:32:51.882Z,14.03
2018-11-04T13:33:55.304Z,12.90
2018-11-04T13:34:58.701Z,13.27
2018-11-04T13:36:02.137Z,13.70
2018-11-04T13:37:06.383Z,13.37
2018-11-04T13:38:10.137Z,13.03
2018-11-04T13:39:13.594Z,12.90
2018-11-04T13:40:17.003Z,13.27
2018-11-04T13:41:20.490Z,12.97
2018-11-04T13:42:23.928Z,13.57
2018-11-04T13:43:27.429Z,13.17
2018-11-04T13:44:30.753Z,13.10
2018-11-04T13:45:34.270Z,13.03
2018-11-04T13:46:37.716Z,13.40
2018-11-04T13:47:41.209Z,11.50
2018-11-04T13:48:44.689Z,12.33
2018-11-04T13:49:48.147Z,13.50
2018-11-04T13:50:51.549Z,12.90
2018-11-04T13:51:54.959Z,12.80
2018-11-04T13:52:58.380Z,12.70
2018-11-04T13:54:01.855Z,12.70
2018-11-04T13:55:05.924Z,13.23
2018-11-04T13:56:09.835Z,12.77
2018-11-04T13:57:13.413Z,12.67
2018-11-04T13:58:16.859Z,12.13
2018-11-04T13:59:20.275Z,13.00
2018-11-04T14:00:23.816Z,12.07
2018-11-04T14:01:27.273Z,11.77
2018-11-04T14:02:30.694Z,12.87